createdAt,value
2023-04-01T00:10:02.351Z,7.61
2023-04-01T00:20:06.909Z,7.60
2023-04-01T00:30:10.177Z,7.51
2023-04-01T00:40:26.199Z,7.57
2023-04-01T00:50:30.316Z,7.57
2023-04-01T01:00:33.939Z,7.77
2023-04-01T01:10:39.374Z,7.81
2023-04-01T01:20:45.878Z,7.82
2023-04-01T01:30:48.548Z,7.86
2023-04-01T01:40:54.908Z,7.92
2023-04-01T01:50:58.589Z,7.69
2023-04-01T02:01:46.244Z,7.53
2023-04-01T02:12:06.939Z,7.61
2023-04-01T02:22:18.993Z,7.46
2023-04-01T02:32:43.250Z,7.32
2023-04-01T02:42:59.400Z,7.35
2023-04-01T02:53:16.469Z,7.09
2023-04-01T03:03:39.338Z,6.95
2023-04-01T03:13:55.480Z,6.97
2023-04-01T03:23:58.377Z,6.89
2023-04-01T03:34:21.251Z,6.62
2023-04-01T03:44:37.473Z,6.75
2023-04-01T03:54:41.463Z,6.42
2023-04-01T04:05:04.271Z,5.98
2023-04-01T04:15:20.502Z,5.80
2023-04-01T04:25:23.114Z,5.98
2023-04-01T04:35:26.442Z,6.02
2023-04-01T04:45:35.759Z,6.32
2023-04-01T04:55:44.929Z,6.42
2023-04-01T05:06:11.352Z,6.65
2023-04-01T05:16:35.294Z,6.61
2023-04-01T05:26:51.424Z,6.79
2023-04-01T05:37:02.290Z,6.75
2023-04-01T05:47:25.303Z,6.84
2023-04-01T05:57:41.480Z,6.81
2023-04-01T06:08:09.242Z,7.08
2023-04-01T06:18:32.123Z,7.11
2023-04-01T06:29:01.241Z,7.73
2023-04-01T06:39:20.728Z,8.02
2023-04-01T06:50:07.365Z,8.23
2023-04-01T07:00:49.294Z,8.53
2023-04-01T07:11:14.267Z,9.06
2023-04-01T07:22:07.272Z,9.49
2023-04-01T07:32:45.552Z,9.88
2023-04-01T07:43:39.279Z,10.04
2023-04-01T07:54:19.165Z,9.97
2023-04-01T08:05:25.308Z,10.46
2023-04-01T08:16:13.352Z,11.41
2023-04-01T08:26:50.797Z,12.47
2023-04-01T08:37:02.046Z,13.23
2023-04-01T08:47:14.582Z,13.12
2023-04-01T08:58:08.703Z,13.60
2023-04-01T09:08:48.680Z,13.76
2023-04-01T09:19:23.827Z,14.60
2023-04-01T09:30:13.319Z,14.44
2023-04-01T09:40:42.308Z,14.07
2023-04-01T09:51:27.317Z,14.12
2023-04-01T10:01:53.897Z,14.56
2023-04-01T10:12:23.351Z,15.63
2023-04-01T10:22:28.785Z,15.02
2023-04-01T10:33:16.750Z,16.19
2023-04-01T10:43:53.342Z,17.28
2023-04-01T10:54:12.694Z,17.98
2023-04-01T11:04:59.294Z,18.43
2023-04-01T11:15:30.141Z,18.19
2023-04-01T11:25:53.776Z,18.69
2023-04-01T11:36:38.753Z,20.56
2023-04-01T11:47:09.859Z,17.09
2023-04-01T11:57:36.638Z,14.93
2023-04-01T12:08:10.351Z,14.29
2023-04-01T12:18:49.498Z,13.95
2023-04-01T12:29:21.643Z,14.15
2023-04-01T12:39:52.777Z,12.85
2023-04-01T12:50:39.328Z,12.86
2023-04-01T13:01:11.167Z,15.43
2023-04-01T13:11:26.832Z,20.73
2023-04-01T13:21:58.356Z,17.08
2023-04-01T13:32:40.701Z,15.76
2023-04-01T13:43:03.332Z,14.97
2023-04-01T13:53:35.374Z,17.58
2023-04-01T14:04:08.292Z,16.64
2023-04-01T14:14:19.898Z,16.05
2023-04-01T14:24:51.411Z,18.04
2023-04-01T14:35:44.421Z,19.54
2023-04-01T14:46:07.194Z,18.94
2023-04-01T14:56:14.749Z,17.64
2023-04-01T15:06:36.097Z,17.57
2023-04-01T15:17:14.401Z,15.63
2023-04-01T15:27:51.657Z,15.16
2023-04-01T15:38:32.397Z,14.99
2023-04-01T15:48:57.715Z,14.38
2023-04-01T15:59:16.419Z,13.81
2023-04-01T16:09:54.394Z,13.52
2023-04-01T16:20:11.208Z,13.38
2023-04-01T16:30:41.688Z,13.17
2023-04-01T16:41:02.585Z,12.91
2023-04-01T16:51:31.380Z,12.90
2023-04-01T17:02:10.478Z,12.86
2023-04-01T17:12:50.482Z,13.03
2023-04-01T17:23:01.321Z,12.57
2023-04-01T17:33:41.382Z,12.10
2023-04-01T17:44:19.068Z,11.63
2023-04-01T17:54:55.869Z,10.96
2023-04-01T18:05:44.379Z,11.01
2023-04-01T18:16:22.581Z,10.93
2023-04-01T18:26:44.072Z,10.78
2023-04-01T18:37:31.491Z,10.81
2023-04-01T18:48:10.445Z,10.62
2023-04-01T18:58:33.801Z,10.63
2023-04-01T19:08:41.714Z,10.60
2023-04-01T19:19:07.640Z,10.57
2023-04-01T19:29:48.006Z,10.29
2023-04-01T19:40:26.450Z,10.30
2023-04-01T19:50:43.151Z,10.44
2023-04-01T20:01:13.508Z,10.04
2023-04-01T20:12:06.385Z,10.06
2023-04-01T20:22:54.457Z,10.10
2023-04-01T20:33:51.083Z,10.07
2023-04-01T20:44:16.466Z,10.13
2023-04-01T20:54:51.409Z,10.11
2023-04-01T21:05:23.458Z,10.18
2023-04-01T21:15:59.392Z,10.18
2023-04-01T21:26:21.126Z,9.86
2023-04-01T21:36:28.203Z,9.88
2023-04-01T21:47:11.471Z,9.70
2023-04-01T21:58:16.415Z,9.56
2023-04-01T22:08:39.139Z,9.63
2023-04-01T22:19:14.217Z,9.67
2023-04-01T22:29:28.150Z,9.78
2023-04-01T22:40:15.474Z,9.51
2023-04-01T22:50:50.994Z,9.57
2023-04-01T23:01:21.460Z,9.74
2023-04-01T23:11:40.529Z,9.84
2023-04-01T23:22:17.646Z,9.94
2023-04-01T23:32:36.443Z,9.71
2023-04-01T23:42:59.460Z,9.62
2023-04-01T23:53:29.246Z,9.39
